createdAt,value
2023-01-29T00:01:39.516Z,30.02
2023-01-29T00:04:06.856Z,29.77
2023-01-29T00:06:34.385Z,30.27
2023-01-29T00:09:01.563Z,29.35
2023-01-29T00:11:28.808Z,29.90
2023-01-29T00:13:56.038Z,28.75
2023-01-29T00:16:23.475Z,28.93
2023-01-29T00:18:50.667Z,28.80
2023-01-29T00:21:19.958Z,27.53
2023-01-29T00:23:47.157Z,27.98
2023-01-29T00:26:15.012Z,28.90
2023-01-29T00:28:44.871Z,28.00
2023-01-29T00:31:18.073Z,28.55
2023-01-29T00:33:45.721Z,28.70
2023-01-29T00:36:14.709Z,29.42
2023-01-29T00:38:41.932Z,30.63
2023-01-29T00:41:28.776Z,27.45
2023-01-29T00:44:14.924Z,27.23
2023-01-29T00:46:42.570Z,26.13
2023-01-29T00:49:10.533Z,27.55
2023-01-29T00:51:39.030Z,28.42
2023-01-29T00:54:06.832Z,28.23
2023-01-29T00:56:36.350Z,28.98
2023-01-29T00:59:04.658Z,27.53
2023-01-29T01:01:50.944Z,28.33
2023-01-29T01:04:18.200Z,28.73
2023-01-29T01:06:45.387Z,28.80
2023-01-29T01:09:31.432Z,28.30
2023-01-29T01:11:58.726Z,29.90
2023-01-29T01:14:26.021Z,29.40
2023-01-29T01:16:53.237Z,29.63
2023-01-29T01:19:20.486Z,29.20
2023-01-29T01:21:48.241Z,29.85
2023-01-29T01:24:15.640Z,30.33
2023-01-29T01:26:42.927Z,29.77
2023-01-29T01:29:10.725Z,28.33
2023-01-29T01:31:38.738Z,30.27
2023-01-29T01:34:06.383Z,29.75
2023-01-29T01:36:33.770Z,30.48
2023-01-29T01:39:00.970Z,31.80
2023-01-29T01:41:29.224Z,30.80
2023-01-29T01:44:01.541Z,31.25
2023-01-29T01:46:30.854Z,31.25
2023-01-29T01:49:09.490Z,31.38
2023-01-29T01:51:40.998Z,32.13
2023-01-29T01:54:17.072Z,32.17
2023-01-29T01:56:48.729Z,33.40
2023-01-29T01:59:18.600Z,31.58
2023-01-29T02:01:52.557Z,32.20
2023-01-29T02:04:43.651Z,33.20
2023-01-29T02:07:32.850Z,32.80
2023-01-29T02:10:13.819Z,34.80
2023-01-29T02:12:41.862Z,33.10
2023-01-29T02:15:09.721Z,34.47
2023-01-29T02:17:37.074Z,34.50
2023-01-29T02:20:17.478Z,34.33
2023-01-29T02:23:06.585Z,35.05
2023-01-29T02:25:42.762Z,35.33
2023-01-29T02:28:24.938Z,36.08
2023-01-29T02:31:09.447Z,35.70
2023-01-29T02:33:53.792Z,36.05
2023-01-29T02:36:29.927Z,35.05
2023-01-29T02:39:12.999Z,36.67
2023-01-29T02:41:56.395Z,35.17
2023-01-29T02:44:37.077Z,37.13
2023-01-29T02:47:10.943Z,37.22
2023-01-29T02:49:49.863Z,37.28
2023-01-29T02:52:27.713Z,36.63
2023-01-29T02:55:03.030Z,37.27
2023-01-29T02:57:39.228Z,35.77
2023-01-29T03:00:26.305Z,38.13
2023-01-29T03:03:18.289Z,37.53
2023-01-29T03:06:12.000Z,39.08
2023-01-29T03:08:42.994Z,37.17
2023-01-29T03:11:15.985Z,36.78
2023-01-29T03:13:46.401Z,36.67
2023-01-29T03:16:28.418Z,37.63
2023-01-29T03:19:09.491Z,39.22
2023-01-29T03:21:51.438Z,39.25
2023-01-29T03:24:54.667Z,35.75
2023-01-29T03:27:48.054Z,38.50
2023-01-29T03:30:36.494Z,37.80
2023-01-29T03:33:15.451Z,38.33
2023-01-29T03:35:50.807Z,38.22
2023-01-29T03:38:18.500Z,38.85
2023-01-29T03:41:25.575Z,38.97
2023-01-29T03:44:17.791Z,38.83
2023-01-29T03:47:04.331Z,37.28
2023-01-29T03:49:49.327Z,39.50
2023-01-29T03:52:25.948Z,40.80
2023-01-29T03:55:13.244Z,40.00
2023-01-29T03:57:55.997Z,39.17
2023-01-29T04:00:42.123Z,41.35
2023-01-29T04:03:19.686Z,40.47
2023-01-29T04:06:09.688Z,40.25
2023-01-29T04:08:54.567Z,39.20
2023-01-29T04:11:23.196Z,39.30
2023-01-29T04:13:52.104Z,39.58
2023-01-29T04:16:28.166Z,41.00
2023-01-29T04:19:14.664Z,38.72
2023-01-29T04:21:43.406Z,40.90
2023-01-29T04:24:12.742Z,39.27
2023-01-29T04:27:09.836Z,39.28
2023-01-29T04:30:08.412Z,39.55
2023-01-29T04:32:58.817Z,40.85
2023-01-29T04:36:07.027Z,41.00
2023-01-29T04:38:50.720Z,42.17
2023-01-29T04:41:47.211Z,40.13
2023-01-29T04:44:32.331Z,40.58
2023-01-29T04:47:08.303Z,38.83
2023-01-29T04:50:15.080Z,41.13
2023-01-29T04:52:54.553Z,40.55
2023-01-29T04:55:44.716Z,39.03
2023-01-29T04:58:37.160Z,39.25
2023-01-29T05:01:07.794Z,40.35
2023-01-29T05:03:37.816Z,39.67
2023-01-29T05:06:06.984Z,41.45
2023-01-29T05:08:34.947Z,38.90
2023-01-29T05:11:02.128Z,42.13
2023-01-29T05:13:31.693Z,40.75
2023-01-29T05:16:15.398Z,40.23
2023-01-29T05:18:44.986Z,42.03
2023-01-29T05:21:12.274Z,42.65
2023-01-29T05:23:39.425Z,41.92
2023-01-29T05:26:06.699Z,41.45
2023-01-29T05:28:33.856Z,41.35
2023-01-29T05:31:01.164Z,42.53
2023-01-29T05:33:30.659Z,42.33
2023-01-29T05:35:59.847Z,41.47
2023-01-29T05:38:27.041Z,42.70
2023-01-29T05:40:54.746Z,43.22
2023-01-29T05:43:24.393Z,42.13
2023-01-29T05:45:59.931Z,41.90
2023-01-29T05:48:29.090Z,41.50
2023-01-29T05:51:03.494Z,41.30
2023-01-29T05:53:31.536Z,42.53
2023-01-29T05:56:01.871Z,40.20
2023-01-29T05:58:31.018Z,41.23
2023-01-29T06:00:58.686Z,43.35
2023-01-29T06:03:25.891Z,42.67
2023-01-29T06:05:53.024Z,42.37
2023-01-29T06:08:20.226Z,44.25
2023-01-29T06:10:47.392Z,43.38
2023-01-29T06:13:14.535Z,44.33
2023-01-29T06:15:41.733Z,45.65
2023-01-29T06:18:08.934Z,44.07
2023-01-29T06:20:37.222Z,43.53
2023-01-29T06:23:04.455Z,43.80
2023-01-29T06:25:31.794Z,43.17
2023-01-29T06:27:59.643Z,44.38
2023-01-29T06:30:28.282Z,42.00
2023-01-29T06:32:58.964Z,44.05
2023-01-29T06:35:26.232Z,42.40
2023-01-29T06:37:54.401Z,44.03
2023-01-29T06:40:21.612Z,44.53
2023-01-29T06:42:48.883Z,43.67
2023-01-29T06:45:16.059Z,44.17
2023-01-29T06:47:43.240Z,44.20
2023-01-29T06:50:11.178Z,43.17
2023-01-29T06:52:38.383Z,44.65
2023-01-29T06:55:06.075Z,45.63
2023-01-29T06:57:33.227Z,46.88
2023-01-29T07:00:00.422Z,43.83
2023-01-29T07:02:27.661Z,44.97
2023-01-29T07:04:54.821Z,46.15
2023-01-29T07:07:22.003Z,45.43
2023-01-29T07:09:49.189Z,43.13
2023-01-29T07:12:16.378Z,45.53
2023-01-29T07:14:43.528Z,45.28
2023-01-29T07:17:10.714Z,44.20
2023-01-29T07:19:37.913Z,45.47
2023-01-29T07:22:05.730Z,45.77
2023-01-29T07:24:33.001Z,44.58
2023-01-29T07:27:00.278Z,46.45
2023-01-29T07:29:27.456Z,44.10
2023-01-29T07:31:54.708Z,45.20
2023-01-29T07:34:21.983Z,45.03
2023-01-29T07:36:49.323Z,45.50
2023-01-29T07:39:16.501Z,44.90
2023-01-29T07:41:43.720Z,44.05
2023-01-29T07:44:16.594Z,44.67
2023-01-29T07:46:44.053Z,45.75
2023-01-29T07:49:11.205Z,47.80
2023-01-29T07:51:38.341Z,45.87
2023-01-29T07:54:05.694Z,44.93
2023-01-29T07:56:32.962Z,45.67
2023-01-29T07:59:00.249Z,45.33
2023-01-29T08:01:27.511Z,46.08
2023-01-29T08:03:54.696Z,44.97
2023-01-29T08:06:21.938Z,44.55
2023-01-29T08:08:49.150Z,45.45
2023-01-29T08:11:16.431Z,45.22
2023-01-29T08:13:44.098Z,46.00
2023-01-29T08:16:11.242Z,46.10
2023-01-29T08:18:38.644Z,44.75
2023-01-29T08:21:05.927Z,45.95
2023-01-29T08:23:33.144Z,46.15
2023-01-29T08:26:03.060Z,45.75
2023-01-29T08:28:30.325Z,45.67
2023-01-29T08:30:57.710Z,45.28
2023-01-29T08:33:37.177Z,44.45
2023-01-29T08:36:06.958Z,45.40
2023-01-29T08:38:34.220Z,43.17
2023-01-29T08:41:01.401Z,45.20
2023-01-29T08:43:28.577Z,45.03
2023-01-29T08:45:55.792Z,44.63
2023-01-29T08:48:23.097Z,43.95
2023-01-29T08:50:50.308Z,42.63
2023-01-29T08:53:19.419Z,44.35
2023-01-29T08:55:46.748Z,44.35
2023-01-29T08:58:14.123Z,45.65
2023-01-29T09:00:41.296Z,43.83
2023-01-29T09:03:08.569Z,42.93
2023-01-29T09:05:37.252Z,43.97
2023-01-29T09:08:05.394Z,44.63
2023-01-29T09:10:32.535Z,42.97
2023-01-29T09:12:59.701Z,44.20
2023-01-29T09:15:26.962Z,46.10
2023-01-29T09:17:54.160Z,43.13
2023-01-29T09:20:21.457Z,46.03
2023-01-29T09:22:49.523Z,44.45
2023-01-29T09:25:16.997Z,44.23
2023-01-29T09:27:44.422Z,45.83
2023-01-29T09:30:12.167Z,43.95
2023-01-29T09:32:55.114Z,44.30
2023-01-29T09:35:23.349Z,44.83
2023-01-29T09:37:51.935Z,43.33
2023-01-29T09:40:54.723Z,45.00
2023-01-29T09:43:29.723Z,44.40
2023-01-29T09:46:20.300Z,44.47
2023-01-29T09:48:51.099Z,43.13
2023-01-29T09:51:30.387Z,46.72
2023-01-29T09:54:12.903Z,45.58
2023-01-29T09:56:42.044Z,43.38
2023-01-29T09:59:12.863Z,45.53
2023-01-29T10:02:01.747Z,41.88
2023-01-29T10:05:06.176Z,44.53
2023-01-29T10:07:36.199Z,43.88
2023-01-29T10:10:25.989Z,43.45
2023-01-29T10:12:53.241Z,45.03
2023-01-29T10:15:42.114Z,43.45
2023-01-29T10:18:09.270Z,44.25
2023-01-29T10:21:06.347Z,46.00
2023-01-29T10:23:37.819Z,45.33
2023-01-29T10:26:04.986Z,44.30
2023-01-29T10:28:43.166Z,44.47
2023-01-29T10:31:23.449Z,44.10
2023-01-29T10:34:03.603Z,43.20
2023-01-29T10:36:38.689Z,42.15
2023-01-29T10:39:05.999Z,42.15
2023-01-29T10:42:05.773Z,43.78
2023-01-29T10:45:00.279Z,43.30
2023-01-29T10:47:56.281Z,45.22
2023-01-29T10:50:42.483Z,43.05
2023-01-29T10:53:30.934Z,41.40
2023-01-29T10:56:10.714Z,42.63
2023-01-29T10:58:52.188Z,40.73
2023-01-29T11:01:19.455Z,43.58
2023-01-29T11:03:54.924Z,42.75
2023-01-29T11:06:29.508Z,45.43
2023-01-29T11:09:37.268Z,45.30
2023-01-29T11:12:16.457Z,44.65
2023-01-29T11:14:58.981Z,47.78
2023-01-29T11:17:27.766Z,45.88
2023-01-29T11:19:55.881Z,46.63
2023-01-29T11:22:28.381Z,48.38
2023-01-29T11:25:19.114Z,44.00
2023-01-29T11:28:01.791Z,48.15
2023-01-29T11:30:31.134Z,47.30
2023-01-29T11:33:05.349Z,47.63
2023-01-29T11:35:33.337Z,48.53
2023-01-29T11:38:15.860Z,47.75
2023-01-29T11:40:44.216Z,45.88
2023-01-29T11:43:30.965Z,44.90
2023-01-29T11:46:02.561Z,42.30
2023-01-29T11:48:43.227Z,48.07
2023-01-29T11:51:26.444Z,43.00
2023-01-29T11:54:00.450Z,45.60
2023-01-29T11:56:33.951Z,48.55
2023-01-29T11:59:04.578Z,46.45
2023-01-29T12:01:38.375Z,45.20
2023-01-29T12:04:20.453Z,46.47
2023-01-29T12:06:51.899Z,41.00
2023-01-29T12:09:28.121Z,44.97
2023-01-29T12:11:55.719Z,48.45
2023-01-29T12:14:34.220Z,48.05
2023-01-29T12:17:10.410Z,46.35
2023-01-29T12:19:44.234Z,47.47
2023-01-29T12:22:20.439Z,49.25
2023-01-29T12:25:16.327Z,51.17
2023-01-29T12:28:07.225Z,51.90
2023-01-29T12:31:05.523Z,46.77
2023-01-29T12:33:38.413Z,54.05
2023-01-29T12:36:32.977Z,56.97
2023-01-29T12:39:00.476Z,61.53
2023-01-29T12:41:35.162Z,58.20
2023-01-29T12:44:31.034Z,56.92
2023-01-29T12:47:01.056Z,55.42
2023-01-29T12:49:37.212Z,57.25
2023-01-29T12:52:07.105Z,54.55
2023-01-29T12:54:47.932Z,60.88
2023-01-29T12:57:25.576Z,63.90
2023-01-29T12:59:59.220Z,62.95
2023-01-29T13:02:32.376Z,73.55
2023-01-29T13:05:09.295Z,77.07
2023-01-29T13:07:47.340Z,78.28
2023-01-29T13:10:19.250Z,74.20
2023-01-29T13:12:57.035Z,86.97
2023-01-29T13:15:38.069Z,81.85
2023-01-29T13:18:23.711Z,67.88
2023-01-29T13:20:51.587Z,80.23
2023-01-29T13:23:22.561Z,78.85
2023-01-29T13:25:54.055Z,80.20
2023-01-29T13:28:24.006Z,77.00
2023-01-29T13:31:31.502Z,83.82
2023-01-29T13:34:23.101Z,71.30
2023-01-29T13:36:54.979Z,73.88
2023-01-29T13:39:34.256Z,70.55
2023-01-29T13:42:14.671Z,68.10
2023-01-29T13:44:46.408Z,65.33
2023-01-29T13:47:24.018Z,66.68
2023-01-29T13:50:07.619Z,64.45
2023-01-29T13:52:46.059Z,62.40
2023-01-29T13:55:21.191Z,60.90
2023-01-29T13:57:56.008Z,58.58
2023-01-29T14:00:30.682Z,52.47
2023-01-29T14:03:00.940Z,53.20
2023-01-29T14:05:31.033Z,51.97
2023-01-29T14:08:44.019Z,52.65
2023-01-29T14:11:17.005Z,53.20
2023-01-29T14:13:48.806Z,49.55
2023-01-29T14:16:16.048Z,50.60
2023-01-29T14:18:48.481Z,49.45
2023-01-29T14:21:35.717Z,50.42
2023-01-29T14:24:19.901Z,47.75
2023-01-29T14:26:55.265Z,49.22
2023-01-29T14:29:35.455Z,47.83
2023-01-29T14:32:24.952Z,46.83
2023-01-29T14:35:04.051Z,48.50
2023-01-29T14:37:38.832Z,48.67
2023-01-29T14:40:25.422Z,45.60
2023-01-29T14:43:08.793Z,46.43
2023-01-29T14:45:39.017Z,48.10
2023-01-29T14:48:12.100Z,46.30
2023-01-29T14:50:41.876Z,44.28
2023-01-29T14:53:29.682Z,45.50
2023-01-29T14:56:02.228Z,46.75
2023-01-29T14:58:47.307Z,48.22
2023-01-29T15:01:37.497Z,46.87
2023-01-29T15:04:29.089Z,44.22
2023-01-29T15:06:59.202Z,43.70
2023-01-29T15:09:36.770Z,45.90
2023-01-29T15:12:23.135Z,44.67
2023-01-29T15:14:57.366Z,45.42
2023-01-29T15:17:48.874Z,43.85
2023-01-29T15:20:35.435Z,42.20
2023-01-29T15:23:03.593Z,44.63
2023-01-29T15:25:49.597Z,43.92
2023-01-29T15:28:16.780Z,43.22
2023-01-29T15:30:45.032Z,45.42
2023-01-29T15:33:14.717Z,46.22
2023-01-29T15:35:43.151Z,48.10
2023-01-29T15:38:21.062Z,41.42
2023-01-29T15:40:56.445Z,46.78
2023-01-29T15:43:28.478Z,47.85
2023-01-29T15:46:01.748Z,45.95
2023-01-29T15:48:36.564Z,50.50
2023-01-29T15:51:07.905Z,50.60
2023-01-29T15:53:42.031Z,47.67
2023-01-29T15:56:11.890Z,51.40
2023-01-29T15:58:39.969Z,47.55
2023-01-29T16:01:08.360Z,46.47
2023-01-29T16:03:37.979Z,45.27
2023-01-29T16:06:07.145Z,48.83
2023-01-29T16:08:35.641Z,48.35
2023-01-29T16:11:06.062Z,46.80
2023-01-29T16:13:36.143Z,50.42
2023-01-29T16:16:40.386Z,48.77
2023-01-29T16:19:28.222Z,48.13
2023-01-29T16:22:04.597Z,46.07
2023-01-29T16:24:36.086Z,50.10
2023-01-29T16:27:12.387Z,44.43
2023-01-29T16:29:39.728Z,50.40
2023-01-29T16:32:08.881Z,43.40
2023-01-29T16:34:42.512Z,46.80
2023-01-29T16:37:33.255Z,48.63
2023-01-29T16:40:00.470Z,47.47
2023-01-29T16:42:32.207Z,48.58
2023-01-29T16:45:03.394Z,46.50
2023-01-29T16:47:41.131Z,47.28
2023-01-29T16:50:26.885Z,47.42
2023-01-29T16:53:00.289Z,47.60
2023-01-29T16:55:35.322Z,48.38
2023-01-29T16:58:18.077Z,50.30
2023-01-29T17:01:08.899Z,51.10
2023-01-29T17:03:37.194Z,48.20
2023-01-29T17:06:21.335Z,46.10
2023-01-29T17:08:48.930Z,50.70
2023-01-29T17:11:28.034Z,45.87
2023-01-29T17:13:56.980Z,48.58
2023-01-29T17:16:33.045Z,45.40
2023-01-29T17:19:00.726Z,46.90
2023-01-29T17:21:30.220Z,51.60
2023-01-29T17:23:57.512Z,49.08
2023-01-29T17:26:24.878Z,48.42
2023-01-29T17:28:54.121Z,46.63
2023-01-29T17:31:21.438Z,47.75
2023-01-29T17:33:48.810Z,47.55
2023-01-29T17:36:17.794Z,47.25
2023-01-29T17:38:47.206Z,46.93
2023-01-29T17:41:29.565Z,48.20
2023-01-29T17:43:56.699Z,48.47
2023-01-29T17:46:23.817Z,49.88
2023-01-29T17:48:51.084Z,48.17
2023-01-29T17:51:18.651Z,46.38
2023-01-29T17:53:47.143Z,44.92
2023-01-29T17:56:17.686Z,47.65
2023-01-29T17:58:44.999Z,46.10
2023-01-29T18:01:12.359Z,43.63
2023-01-29T18:03:39.566Z,45.63
2023-01-29T18:06:12.579Z,48.40
2023-01-29T18:08:40.044Z,46.25
2023-01-29T18:11:09.792Z,49.83
2023-01-29T18:13:37.176Z,48.08
2023-01-29T18:16:04.603Z,44.67
2023-01-29T18:18:31.825Z,42.20
2023-01-29T18:20:59.073Z,44.97
2023-01-29T18:23:26.295Z,47.97
2023-01-29T18:25:57.486Z,47.40
2023-01-29T18:28:25.224Z,44.33
2023-01-29T18:30:52.661Z,44.78
2023-01-29T18:33:19.888Z,46.80
2023-01-29T18:35:48.215Z,44.80
2023-01-29T18:38:16.538Z,46.88
2023-01-29T18:40:43.837Z,47.58
2023-01-29T18:43:11.113Z,43.83
2023-01-29T18:45:38.414Z,51.25
2023-01-29T18:48:05.983Z,47.67
2023-01-29T18:50:33.950Z,47.50
2023-01-29T18:53:01.210Z,42.10
2023-01-29T18:55:28.433Z,41.50
2023-01-29T18:58:27.203Z,47.93
2023-01-29T19:00:43.881Z,46.70
2023-01-29T19:03:11.193Z,43.60
2023-01-29T19:05:38.518Z,48.20
2023-01-29T19:08:05.904Z,46.72
2023-01-29T19:10:33.972Z,52.47
2023-01-29T19:13:01.677Z,51.10
2023-01-29T19:15:29.090Z,49.33
2023-01-29T19:17:56.654Z,48.72
2023-01-29T19:20:24.173Z,48.03
2023-01-29T19:22:51.341Z,48.05
2023-01-29T19:25:19.605Z,51.43
2023-01-29T19:27:46.994Z,50.73
2023-01-29T19:30:14.432Z,51.80
2023-01-29T19:32:41.811Z,52.88
2023-01-29T19:35:09.061Z,49.60
2023-01-29T19:37:36.339Z,48.07
2023-01-29T19:40:03.938Z,51.17
2023-01-29T19:42:31.335Z,48.83
2023-01-29T19:44:58.538Z,48.13
2023-01-29T19:47:25.776Z,49.90
2023-01-29T19:49:52.922Z,48.75
2023-01-29T19:52:50.250Z,47.90
2023-01-29T19:55:19.946Z,50.63
2023-01-29T19:57:47.431Z,48.85
2023-01-29T20:00:15.439Z,49.03
2023-01-29T20:02:42.640Z,48.40
2023-01-29T20:05:12.082Z,44.35
2023-01-29T20:07:41.072Z,49.20
2023-01-29T20:10:11.353Z,47.05
2023-01-29T20:12:38.606Z,46.50
2023-01-29T20:15:07.280Z,50.08
2023-01-29T20:17:34.638Z,47.58
2023-01-29T20:20:13.724Z,46.47
2023-01-29T20:22:40.917Z,47.03
2023-01-29T20:25:08.803Z,46.40
2023-01-29T20:27:36.202Z,49.70
2023-01-29T20:30:03.619Z,41.20
2023-01-29T20:32:32.749Z,40.40
2023-01-29T20:34:59.945Z,39.08
2023-01-29T20:37:27.179Z,40.75
2023-01-29T20:39:54.401Z,40.25
2023-01-29T20:42:21.608Z,41.75
2023-01-29T20:44:48.826Z,41.85
2023-01-29T20:47:16.129Z,42.27
2023-01-29T20:49:43.473Z,41.90
2023-01-29T20:52:11.229Z,41.87
2023-01-29T20:54:38.458Z,36.65
2023-01-29T20:57:05.665Z,37.17
2023-01-29T20:59:32.943Z,38.67
2023-01-29T21:02:00.232Z,41.75
2023-01-29T21:04:27.555Z,35.95
2023-01-29T21:06:54.889Z,34.20
2023-01-29T21:09:22.072Z,34.60
2023-01-29T21:11:49.356Z,39.23
2023-01-29T21:14:16.620Z,34.30
2023-01-29T21:16:43.847Z,32.60
2023-01-29T21:19:14.713Z,31.48
2023-01-29T21:21:41.914Z,30.33
2023-01-29T21:24:09.369Z,32.23
2023-01-29T21:26:39.510Z,30.42
2023-01-29T21:29:07.046Z,31.67
2023-01-29T21:31:34.254Z,28.95
2023-01-29T21:34:01.673Z,29.53
2023-01-29T21:36:28.877Z,32.40
2023-01-29T21:38:56.033Z,30.53
2023-01-29T21:41:42.441Z,28.40
2023-01-29T21:44:09.940Z,29.08
2023-01-29T21:46:37.121Z,28.88
2023-01-29T21:49:04.707Z,26.48
2023-01-29T21:51:31.900Z,26.60
2023-01-29T21:53:59.078Z,26.67
2023-01-29T21:56:26.222Z,28.02
2023-01-29T21:58:53.377Z,24.13
2023-01-29T22:01:36.499Z,27.05
2023-01-29T22:04:07.589Z,25.27
2023-01-29T22:06:34.784Z,20.52
2023-01-29T22:09:01.944Z,22.50
2023-01-29T22:11:29.368Z,24.73
2023-01-29T22:13:56.606Z,24.77
2023-01-29T22:16:23.795Z,23.92
2023-01-29T22:18:50.983Z,21.07
2023-01-29T22:21:18.149Z,24.23
2023-01-29T22:23:48.734Z,22.80
2023-01-29T22:26:16.432Z,21.60
2023-01-29T22:28:43.653Z,20.42
2023-01-29T22:31:11.142Z,23.17
2023-01-29T22:33:38.751Z,15.98
2023-01-29T22:36:06.475Z,14.38
2023-01-29T22:38:33.721Z,12.27
2023-01-29T22:41:01.731Z,15.23
2023-01-29T22:43:31.936Z,15.48
2023-01-29T22:45:59.211Z,14.93
2023-01-29T22:48:27.931Z,14.35
2023-01-29T22:51:11.838Z,13.93
2023-01-29T22:53:44.669Z,13.38
2023-01-29T22:56:12.266Z,15.02
2023-01-29T22:58:40.933Z,13.85
2023-01-29T23:01:08.500Z,12.27
2023-01-29T23:03:36.359Z,12.02
2023-01-29T23:06:04.175Z,14.07
2023-01-29T23:08:32.721Z,12.80
2023-01-29T23:11:15.633Z,11.27
2023-01-29T23:13:54.151Z,11.68
2023-01-29T23:16:26.180Z,11.10
2023-01-29T23:18:55.247Z,10.90
2023-01-29T23:21:24.996Z,15.43
2023-01-29T23:23:52.723Z,12.43
2023-01-29T23:26:38.418Z,13.25
2023-01-29T23:29:05.794Z,13.63
2023-01-29T23:31:33.036Z,13.48
2023-01-29T23:34:00.226Z,14.98
2023-01-29T23:36:27.605Z,15.05
2023-01-29T23:38:54.769Z,11.30
2023-01-29T23:41:22.078Z,11.70
2023-01-29T23:43:49.911Z,10.70
2023-01-29T23:46:17.082Z,16.70
2023-01-29T23:48:44.343Z,12.18
2023-01-29T23:51:11.623Z,16.08
2023-01-29T23:53:38.905Z,12.43
2023-01-29T23:56:06.487Z,16.27
2023-01-29T23:58:33.857Z,15.53
